sensor_id;sensor_type;location;lat;lon;timestamp;temperature;humidity
35111;DHT22;21290;50.158;8.658;2023-02-22T00:01:11;5.40;99.90
35111;DHT22;21290;50.158;8.658;2023-02-22T00:03:53;5.30;99.90
35111;DHT22;21290;50.158;8.658;2023-02-22T00:06:21;5.30;99.90
35111;DHT22;21290;50.158;8.658;2023-02-22T00:08:50;5.30;99.90
35111;DHT22;21290;50.158;8.658;2023-02-22T00:11:18;5.30;99.90
35111;DHT22;21290;50.158;8.658;2023-02-22T00:13:46;5.30;99.90
35111;DHT22;21290;50.158;8.658;2023-02-22T00:16:20;5.30;99.90
35111;DHT22;21290;50.158;8.658;2023-02-22T00:18:47;5.20;99.90
35111;DHT22;21290;50.158;8.658;2023-02-22T00:21:15;5.20;99.90
35111;DHT22;21290;50.158;8.658;2023-02-22T00:23:44;5.20;99.90
35111;DHT22;21290;50.158;8.658;2023-02-22T00:26:17;5.20;99.90
35111;DHT22;21290;50.158;8.658;2023-02-22T00:28:46;5.10;99.90
35111;DHT22;21290;50.158;8.658;2023-02-22T00:31:13;5.10;99.90
35111;DHT22;21290;50.158;8.658;2023-02-22T00:33:41;5.10;99.90
35111;DHT22;21290;50.158;8.658;2023-02-22T00:36:09;5.10;99.90
35111;DHT22;21290;50.158;8.658;2023-02-22T00:38:36;5.10;99.90
35111;DHT22;21290;50.158;8.658;2023-02-22T00:41:03;5.10;99.90
35111;DHT22;21290;50.158;8.658;2023-02-22T00:43:30;5.10;99.90
35111;DHT22;21290;50.158;8.658;2023-02-22T00:45:56;5.00;99.90
35111;DHT22;21290;50.158;8.658;2023-02-22T00:48:24;5.00;99.90
35111;DHT22;21290;50.158;8.658;2023-02-22T00:50:51;5.00;99.90
35111;DHT22;21290;50.158;8.658;2023-02-22T00:53:21;5.00;99.90
35111;DHT22;21290;50.158;8.658;2023-02-22T00:55:49;4.90;99.90
35111;DHT22;21290;50.158;8.658;2023-02-22T00:58:16;4.90;99.90
35111;DHT22;21290;50.158;8.658;2023-02-22T01:00:44;4.90;99.90
35111;DHT22;21290;50.158;8.658;2023-02-22T01:03:13;4.90;99.90
35111;DHT22;21290;50.158;8.658;2023-02-22T01:05:41;4.80;99.90
35111;DHT22;21290;50.158;8.658;2023-02-22T01:08:09;4.80;99.90
35111;DHT22;21290;50.158;8.658;2023-02-22T01:10:37;4.80;99.90
35111;DHT22;21290;50.158;8.658;2023-02-22T01:13:04;4.80;99.90
35111;DHT22;21290;50.158;8.658;2023-02-22T01:15:36;4.70;99.90
35111;DHT22;21290;50.158;8.658;2023-02-22T01:18:04;4.70;99.90
35111;DHT22;21290;50.158;8.658;2023-02-22T01:20:31;4.70;99.90
35111;DHT22;21290;50.158;8.658;2023-02-22T01:22:59;4.70;99.90
35111;DHT22;21290;50.158;8.658;2023-02-22T01:25:28;4.70;99.90
35111;DHT22;21290;50.158;8.658;2023-02-22T01:27:56;4.70;99.90
35111;DHT22;21290;50.158;8.658;2023-02-22T01:30:26;4.70;99.90
35111;DHT22;21290;50.158;8.658;2023-02-22T01:32:53;4.70;99.90
35111;DHT22;21290;50.158;8.658;2023-02-22T01:35:24;4.60;99.90
35111;DHT22;21290;50.158;8.658;2023-02-22T01:37:51;4.60;99.90
35111;DHT22;21290;50.158;8.658;2023-02-22T01:40:24;4.60;99.90
35111;DHT22;21290;50.158;8.658;2023-02-22T01:42:55;4.60;99.90
35111;DHT22;21290;50.158;8.658;2023-02-22T01:50:58;4.60;99.90
35111;DHT22;21290;50.158;8.658;2023-02-22T01:53:32;4.60;99.90
35111;DHT22;21290;50.158;8.658;2023-02-22T01:55:59;4.50;99.90
35111;DHT22;21290;50.158;8.658;2023-02-22T01:58:28;4.50;99.90
35111;DHT22;21290;50.158;8.658;2023-02-22T02:00:56;4.50;99.90
35111;DHT22;21290;50.158;8.658;2023-02-22T02:03:27;4.50;99.90
35111;DHT22;21290;50.158;8.658;2023-02-22T02:05:57;4.50;99.90
35111;DHT22;21290;50.158;8.658;2023-02-22T02:08:54;4.50;99.90
35111;DHT22;21290;50.158;8.658;2023-02-22T02:11:25;4.40;99.90
35111;DHT22;21290;50.158;8.658;2023-02-22T02:13:54;4.50;99.90
35111;DHT22;21290;50.158;8.658;2023-02-22T02:16:23;4.50;99.90
35111;DHT22;21290;50.158;8.658;2023-02-22T02:18:51;4.50;99.90
35111;DHT22;21290;50.158;8.658;2023-02-22T02:21:39;4.50;99.90
35111;DHT22;21290;50.158;8.658;2023-02-22T02:27:13;4.40;99.90
35111;DHT22;21290;50.158;8.658;2023-02-22T02:35:23;4.30;99.90
35111;DHT22;21290;50.158;8.658;2023-02-22T02:38:22;4.30;99.90
35111;DHT22;21290;50.158;8.658;2023-02-22T02:40:59;4.30;99.90
35111;DHT22;21290;50.158;8.658;2023-02-22T02:43:33;4.20;99.90
35111;DHT22;21290;50.158;8.658;2023-02-22T02:46:28;4.20;99.90
35111;DHT22;21290;50.158;8.658;2023-02-22T02:49:12;4.20;99.90
35111;DHT22;21290;50.158;8.658;2023-02-22T02:51:43;4.30;99.90
35111;DHT22;21290;50.158;8.658;2023-02-22T02:54:12;4.30;99.90
35111;DHT22;21290;50.158;8.658;2023-02-22T02:56:40;4.30;99.90
35111;DHT22;21290;50.158;8.658;2023-02-22T02:59:31;4.30;99.90
35111;DHT22;21290;50.158;8.658;2023-02-22T03:16:18;4.30;99.90
35111;DHT22;21290;50.158;8.658;2023-02-22T03:18:55;4.30;99.90
35111;DHT22;21290;50.158;8.658;2023-02-22T03:21:33;4.30;99.90
35111;DHT22;21290;50.158;8.658;2023-02-22T03:24:06;4.30;99.90
35111;DHT22;21290;50.158;8.658;2023-02-22T03:26:47;4.20;99.90
35111;DHT22;21290;50.158;8.658;2023-02-22T03:29:17;4.30;99.90
35111;DHT22;21290;50.158;8.658;2023-02-22T03:31:47;4.30;99.90
35111;DHT22;21290;50.158;8.658;2023-02-22T03:34:21;4.30;99.90
35111;DHT22;21290;50.158;8.658;2023-02-22T03:37:14;4.30;99.90
35111;DHT22;21290;50.158;8.658;2023-02-22T03:39:43;4.20;99.90
35111;DHT22;21290;50.158;8.658;2023-02-22T03:42:17;4.20;99.90
35111;DHT22;21290;50.158;8.658;2023-02-22T03:44:46;4.20;99.90
35111;DHT22;21290;50.158;8.658;2023-02-22T03:47:35;4.20;99.90
35111;DHT22;21290;50.158;8.658;2023-02-22T03:50:19;4.20;99.90
35111;DHT22;21290;50.158;8.658;2023-02-22T03:52:46;4.20;99.90
35111;DHT22;21290;50.158;8.658;2023-02-22T03:55:14;4.20;99.90
35111;DHT22;21290;50.158;8.658;2023-02-22T03:57:49;4.20;99.90
35111;DHT22;21290;50.158;8.658;2023-02-22T04:00:38;4.20;99.90
35111;DHT22;21290;50.158;8.658;2023-02-22T04:03:05;4.20;99.90
35111;DHT22;21290;50.158;8.658;2023-02-22T04:05:32;4.10;99.90
35111;DHT22;21290;50.158;8.658;2023-02-22T04:07:58;4.10;99.90
35111;DHT22;21290;50.158;8.658;2023-02-22T04:10:25;4.10;99.90
35111;DHT22;21290;50.158;8.658;2023-02-22T04:12:52;4.00;99.90
35111;DHT22;21290;50.158;8.658;2023-02-22T04:15:21;4.00;99.90
35111;DHT22;21290;50.158;8.658;2023-02-22T04:17:48;3.90;99.90
35111;DHT22;21290;50.158;8.658;2023-02-22T04:20:16;3.90;99.90
35111;DHT22;21290;50.158;8.658;2023-02-22T04:22:45;3.90;99.90
35111;DHT22;21290;50.158;8.658;2023-02-22T04:25:13;3.90;99.90
35111;DHT22;21290;50.158;8.658;2023-02-22T04:27:40;3.90;99.90
35111;DHT22;21290;50.158;8.658;2023-02-22T04:30:07;3.80;99.90
35111;DHT22;21290;50.158;8.658;2023-02-22T04:32:34;3.80;99.90
35111;DHT22;21290;50.158;8.658;2023-02-22T04:35:01;3.80;99.90
35111;DHT22;21290;50.158;8.658;2023-02-22T04:37:27;3.70;99.90
35111;DHT22;21290;50.158;8.658;2023-02-22T04:39:54;3.80;99.90
35111;DHT22;21290;50.158;8.658;2023-02-22T04:42:21;3.70;99.90
35111;DHT22;21290;50.158;8.658;2023-02-22T04:44:47;3.70;99.90
35111;DHT22;21290;50.158;8.658;2023-02-22T04:47:14;3.70;99.90
35111;DHT22;21290;50.158;8.658;2023-02-22T04:49:40;3.60;99.90
35111;DHT22;21290;50.158;8.658;2023-02-22T04:52:07;3.60;99.90
35111;DHT22;21290;50.158;8.658;2023-02-22T04:54:34;3.60;99.90
35111;DHT22;21290;50.158;8.658;2023-02-22T04:57:00;3.60;99.90
35111;DHT22;21290;50.158;8.658;2023-02-22T04:59:27;3.60;99.90
35111;DHT22;21290;50.158;8.658;2023-02-22T05:01:54;3.60;99.90
35111;DHT22;21290;50.158;8.658;2023-02-22T05:04:20;3.60;99.90
35111;DHT22;21290;50.158;8.658;2023-02-22T05:06:47;3.60;99.90
35111;DHT22;21290;50.158;8.658;2023-02-22T05:09:14;3.60;99.90
35111;DHT22;21290;50.158;8.658;2023-02-22T05:11:40;3.60;99.90
35111;DHT22;21290;50.158;8.658;2023-02-22T05:14:07;3.60;99.90
35111;DHT22;21290;50.158;8.658;2023-02-22T05:16:33;3.60;99.90
35111;DHT22;21290;50.158;8.658;2023-02-22T05:19:01;3.60;99.90
35111;DHT22;21290;50.158;8.658;2023-02-22T05:21:28;3.60;99.90
35111;DHT22;21290;50.158;8.658;2023-02-22T05:23:54;3.60;99.90
35111;DHT22;21290;50.158;8.658;2023-02-22T05:26:21;3.50;99.90
35111;DHT22;21290;50.158;8.658;2023-02-22T05:28:48;3.50;99.90
35111;DHT22;21290;50.158;8.658;2023-02-22T05:31:14;3.50;99.90
35111;DHT22;21290;50.158;8.658;2023-02-22T05:33:41;3.50;99.90
35111;DHT22;21290;50.158;8.658;2023-02-22T05:36:08;3.50;99.90
35111;DHT22;21290;50.158;8.658;2023-02-22T05:38:36;3.40;99.90
35111;DHT22;21290;50.158;8.658;2023-02-22T05:41:12;3.30;99.90
35111;DHT22;21290;50.158;8.658;2023-02-22T05:43:39;3.40;99.90
35111;DHT22;21290;50.158;8.658;2023-02-22T05:46:06;3.40;99.90
35111;DHT22;21290;50.158;8.658;2023-02-22T05:48:33;3.40;99.90
35111;DHT22;21290;50.158;8.658;2023-02-22T05:51:00;3.40;99.90
35111;DHT22;21290;50.158;8.658;2023-02-22T05:53:26;3.40;99.90
35111;DHT22;21290;50.158;8.658;2023-02-22T05:55:53;3.50;99.90
35111;DHT22;21290;50.158;8.658;2023-02-22T05:58:20;3.50;99.90
35111;DHT22;21290;50.158;8.658;2023-02-22T06:00:47;3.40;99.90
35111;DHT22;21290;50.158;8.658;2023-02-22T06:03:14;3.50;99.90
35111;DHT22;21290;50.158;8.658;2023-02-22T06:05:41;3.60;99.90
35111;DHT22;21290;50.158;8.658;2023-02-22T06:08:08;3.60;99.90
35111;DHT22;21290;50.158;8.658;2023-02-22T06:10:34;3.70;99.90
35111;DHT22;21290;50.158;8.658;2023-02-22T06:13:02;3.70;99.90
35111;DHT22;21290;50.158;8.658;2023-02-22T06:15:30;3.70;99.90
35111;DHT22;21290;50.158;8.658;2023-02-22T06:17:57;3.70;99.90
35111;DHT22;21290;50.158;8.658;2023-02-22T06:20:26;3.70;99.90
35111;DHT22;21290;50.158;8.658;2023-02-22T06:22:54;3.70;99.90
35111;DHT22;21290;50.158;8.658;2023-02-22T06:25:24;3.80;99.90
35111;DHT22;21290;50.158;8.658;2023-02-22T06:27:51;3.80;99.90
35111;DHT22;21290;50.158;8.658;2023-02-22T06:30:20;3.80;99.90
35111;DHT22;21290;50.158;8.658;2023-02-22T06:32:47;3.80;99.90
35111;DHT22;21290;50.158;8.658;2023-02-22T06:35:14;3.80;99.90
35111;DHT22;21290;50.158;8.658;2023-02-22T06:37:41;3.90;99.90
35111;DHT22;21290;50.158;8.658;2023-02-22T06:40:08;3.80;99.90
35111;DHT22;21290;50.158;8.658;2023-02-22T06:42:37;3.80;99.90
35111;DHT22;21290;50.158;8.658;2023-02-22T06:45:04;3.80;99.90
35111;DHT22;21290;50.158;8.658;2023-02-22T06:47:30;3.90;99.90
35111;DHT22;21290;50.158;8.658;2023-02-22T06:49:58;3.90;99.90
35111;DHT22;21290;50.158;8.658;2023-02-22T06:52:26;3.90;99.90
35111;DHT22;21290;50.158;8.658;2023-02-22T06:54:52;4.00;99.90
35111;DHT22;21290;50.158;8.658;2023-02-22T06:57:19;4.00;99.90
35111;DHT22;21290;50.158;8.658;2023-02-22T06:59:45;4.00;99.90
35111;DHT22;21290;50.158;8.658;2023-02-22T07:02:13;4.10;99.90
35111;DHT22;21290;50.158;8.658;2023-02-22T07:04:39;4.10;99.90
35111;DHT22;21290;50.158;8.658;2023-02-22T07:07:09;4.10;99.90
35111;DHT22;21290;50.158;8.658;2023-02-22T07:09:35;4.10;99.90
35111;DHT22;21290;50.158;8.658;2023-02-22T07:12:02;4.10;99.90
35111;DHT22;21290;50.158;8.658;2023-02-22T07:14:29;4.20;99.90
35111;DHT22;21290;50.158;8.658;2023-02-22T07:16:55;4.10;99.90
35111;DHT22;21290;50.158;8.658;2023-02-22T07:19:22;4.10;99.90
35111;DHT22;21290;50.158;8.658;2023-02-22T07:21:50;4.10;99.90
35111;DHT22;21290;50.158;8.658;2023-02-22T07:24:20;4.00;99.90
35111;DHT22;21290;50.158;8.658;2023-02-22T07:26:47;4.00;99.90
35111;DHT22;21290;50.158;8.658;2023-02-22T07:29:14;4.10;99.90
35111;DHT22;21290;50.158;8.658;2023-02-22T07:31:40;4.10;99.90
35111;DHT22;21290;50.158;8.658;2023-02-22T07:34:07;4.10;99.90
35111;DHT22;21290;50.158;8.658;2023-02-22T07:36:33;4.20;99.90
35111;DHT22;21290;50.158;8.658;2023-02-22T07:39:00;4.20;99.90
35111;DHT22;21290;50.158;8.658;2023-02-22T07:41:27;4.30;99.90
35111;DHT22;21290;50.158;8.658;2023-02-22T07:43:53;4.30;99.90
35111;DHT22;21290;50.158;8.658;2023-02-22T07:46:20;4.30;99.90
35111;DHT22;21290;50.158;8.658;2023-02-22T07:48:46;4.40;99.90
35111;DHT22;21290;50.158;8.658;2023-02-22T07:51:15;4.50;99.90
35111;DHT22;21290;50.158;8.658;2023-02-22T07:53:42;4.60;99.90
35111;DHT22;21290;50.158;8.658;2023-02-22T07:56:09;4.70;99.90
35111;DHT22;21290;50.158;8.658;2023-02-22T07:58:35;4.90;99.90
35111;DHT22;21290;50.158;8.658;2023-02-22T08:01:02;4.90;99.90
35111;DHT22;21290;50.158;8.658;2023-02-22T08:03:32;5.00;99.90
35111;DHT22;21290;50.158;8.658;2023-02-22T08:06:05;5.20;99.90
35111;DHT22;21290;50.158;8.658;2023-02-22T08:08:32;5.30;99.90
35111;DHT22;21290;50.158;8.658;2023-02-22T08:10:59;5.40;99.90
35111;DHT22;21290;50.158;8.658;2023-02-22T08:13:26;5.50;99.90
35111;DHT22;21290;50.158;8.658;2023-02-22T08:15:53;5.50;99.90
35111;DHT22;21290;50.158;8.658;2023-02-22T08:18:21;5.60;99.90
35111;DHT22;21290;50.158;8.658;2023-02-22T08:20:49;5.70;99.90
35111;DHT22;21290;50.158;8.658;2023-02-22T08:23:19;5.70;99.90
35111;DHT22;21290;50.158;8.658;2023-02-22T08:25:46;5.80;99.90
35111;DHT22;21290;50.158;8.658;2023-02-22T08:28:15;5.90;99.90
35111;DHT22;21290;50.158;8.658;2023-02-22T08:30:42;5.90;99.90
35111;DHT22;21290;50.158;8.658;2023-02-22T08:33:10;6.00;99.90
35111;DHT22;21290;50.158;8.658;2023-02-22T08:35:40;6.00;99.90
35111;DHT22;21290;50.158;8.658;2023-02-22T08:38:13;6.00;99.90
35111;DHT22;21290;50.158;8.658;2023-02-22T08:40:40;6.10;99.90
35111;DHT22;21290;50.158;8.658;2023-02-22T08:43:07;6.10;99.90
35111;DHT22;21290;50.158;8.658;2023-02-22T08:45:33;6.20;99.90
35111;DHT22;21290;50.158;8.658;2023-02-22T08:48:00;6.40;99.90
35111;DHT22;21290;50.158;8.658;2023-02-22T08:50:29;6.50;99.90
35111;DHT22;21290;50.158;8.658;2023-02-22T08:52:57;6.70;99.90
35111;DHT22;21290;50.158;8.658;2023-02-22T08:55:27;6.90;99.90
35111;DHT22;21290;50.158;8.658;2023-02-22T08:57:55;7.10;99.90
35111;DHT22;21290;50.158;8.658;2023-02-22T09:00:23;7.30;99.90
35111;DHT22;21290;50.158;8.658;2023-02-22T09:02:54;7.40;99.90
35111;DHT22;21290;50.158;8.658;2023-02-22T09:05:21;7.60;99.90
35111;DHT22;21290;50.158;8.658;2023-02-22T09:07:48;7.70;99.90
35111;DHT22;21290;50.158;8.658;2023-02-22T09:10:21;7.90;99.90
35111;DHT22;21290;50.158;8.658;2023-02-22T09:12:53;8.10;99.90
35111;DHT22;21290;50.158;8.658;2023-02-22T09:15:24;8.10;99.90
35111;DHT22;21290;50.158;8.658;2023-02-22T09:17:52;8.30;99.90
35111;DHT22;21290;50.158;8.658;2023-02-22T09:20:20;8.40;99.90
35111;DHT22;21290;50.158;8.658;2023-02-22T09:22:48;8.40;99.90
35111;DHT22;21290;50.158;8.658;2023-02-22T09:25:16;8.40;99.90
35111;DHT22;21290;50.158;8.658;2023-02-22T09:27:50;8.50;99.90
35111;DHT22;21290;50.158;8.658;2023-02-22T09:30:29;8.60;99.90
35111;DHT22;21290;50.158;8.658;2023-02-22T09:33:01;8.70;99.90
35111;DHT22;21290;50.158;8.658;2023-02-22T09:35:29;8.70;99.90
35111;DHT22;21290;50.158;8.658;2023-02-22T09:37:57;8.70;99.90
35111;DHT22;21290;50.158;8.658;2023-02-22T09:40:25;8.80;99.90
35111;DHT22;21290;50.158;8.658;2023-02-22T09:51:36;9.10;99.90
35111;DHT22;21290;50.158;8.658;2023-02-22T09:54:13;9.10;99.90
35111;DHT22;21290;50.158;8.658;2023-02-22T09:56:45;9.20;99.90
35111;DHT22;21290;50.158;8.658;2023-02-22T09:59:16;9.20;99.90
35111;DHT22;21290;50.158;8.658;2023-02-22T10:01:48;9.30;99.90
35111;DHT22;21290;50.158;8.658;2023-02-22T10:04:51;9.50;99.90
35111;DHT22;21290;50.158;8.658;2023-02-22T10:07:45;9.60;99.90
35111;DHT22;21290;50.158;8.658;2023-02-22T10:10:20;9.90;99.90
35111;DHT22;21290;50.158;8.658;2023-02-22T10:13:14;10.00;99.90
35111;DHT22;21290;50.158;8.658;2023-02-22T10:18:39;10.40;99.90
35111;DHT22;21290;50.158;8.658;2023-02-22T10:21:31;10.90;99.90
35111;DHT22;21290;50.158;8.658;2023-02-22T10:24:26;11.60;99.90
35111;DHT22;21290;50.158;8.658;2023-02-22T10:26:57;12.80;99.90
35111;DHT22;21290;50.158;8.658;2023-02-22T10:29:35;14.50;99.90
35111;DHT22;21290;50.158;8.658;2023-02-22T10:32:05;15.10;99.90
35111;DHT22;21290;50.158;8.658;2023-02-22T10:34:38;15.40;99.90
35111;DHT22;21290;50.158;8.658;2023-02-22T10:37:24;15.30;99.90
35111;DHT22;21290;50.158;8.658;2023-02-22T10:40:15;15.20;99.90
35111;DHT22;21290;50.158;8.658;2023-02-22T10:42:43;15.10;99.90
35111;DHT22;21290;50.158;8.658;2023-02-22T10:45:23;15.30;99.90
35111;DHT22;21290;50.158;8.658;2023-02-22T10:47:53;15.80;99.90
35111;DHT22;21290;50.158;8.658;2023-02-22T10:50:21;16.50;99.90
35111;DHT22;21290;50.158;8.658;2023-02-22T10:52:48;17.40;99.90
35111;DHT22;21290;50.158;8.658;2023-02-22T10:55:15;17.90;98.80
35111;DHT22;21290;50.158;8.658;2023-02-22T10:57:48;18.50;98.00
35111;DHT22;21290;50.158;8.658;2023-02-22T11:00:29;19.30;96.60
35111;DHT22;21290;50.158;8.658;2023-02-22T11:03:01;20.20;94.70
35111;DHT22;21290;50.158;8.658;2023-02-22T11:05:35;20.80;92.10
35111;DHT22;21290;50.158;8.658;2023-02-22T11:08:25;20.70;91.00
35111;DHT22;21290;50.158;8.658;2023-02-22T11:10:58;21.40;90.50
35111;DHT22;21290;50.158;8.658;2023-02-22T11:13:37;22.20;87.90
35111;DHT22;21290;50.158;8.658;2023-02-22T11:16:27;22.30;84.10
35111;DHT22;21290;50.158;8.658;2023-02-22T11:21:43;22.50;81.60
35111;DHT22;21290;50.158;8.658;2023-02-22T11:24:12;23.50;78.90
35111;DHT22;21290;50.158;8.658;2023-02-22T11:26:46;23.70;77.10
35111;DHT22;21290;50.158;8.658;2023-02-22T11:29:35;24.10;76.10
35111;DHT22;21290;50.158;8.658;2023-02-22T11:32:12;24.50;74.30
35111;DHT22;21290;50.158;8.658;2023-02-22T11:34:40;24.40;72.80
35111;DHT22;21290;50.158;8.658;2023-02-22T11:39:43;23.90;71.60
35111;DHT22;21290;50.158;8.658;2023-02-22T11:42:28;23.10;72.80
35111;DHT22;21290;50.158;8.658;2023-02-22T11:47:54;22.90;73.80
35111;DHT22;21290;50.158;8.658;2023-02-22T11:50:26;22.40;75.00
35111;DHT22;21290;50.158;8.658;2023-02-22T11:59:22;22.00;74.60
35111;DHT22;21290;50.158;8.658;2023-02-22T12:07:55;21.30;76.30
35111;DHT22;21290;50.158;8.658;2023-02-22T12:10:52;20.60;77.50
35111;DHT22;21290;50.158;8.658;2023-02-22T12:16:35;19.10;80.00
35111;DHT22;21290;50.158;8.658;2023-02-22T12:19:18;18.20;82.40
35111;DHT22;21290;50.158;8.658;2023-02-22T12:21:50;17.60;86.10
35111;DHT22;21290;50.158;8.658;2023-02-22T12:24:22;17.20;88.00
35111;DHT22;21290;50.158;8.658;2023-02-22T12:26:58;16.80;87.70
35111;DHT22;21290;50.158;8.658;2023-02-22T12:29:32;16.30;89.70
35111;DHT22;21290;50.158;8.658;2023-02-22T12:32:26;16.00;91.60
35111;DHT22;21290;50.158;8.658;2023-02-22T12:34:58;15.70;92.30
35111;DHT22;21290;50.158;8.658;2023-02-22T12:43:15;15.20;95.30
35111;DHT22;21290;50.158;8.658;2023-02-22T12:46:16;15.30;96.50
35111;DHT22;21290;50.158;8.658;2023-02-22T12:51:38;15.10;97.00
35111;DHT22;21290;50.158;8.658;2023-02-22T12:54:19;15.10;97.40
35111;DHT22;21290;50.158;8.658;2023-02-22T12:57:04;15.10;98.00
35111;DHT22;21290;50.158;8.658;2023-02-22T12:59:43;14.90;97.90
35111;DHT22;21290;50.158;8.658;2023-02-22T13:02:19;14.80;98.30
35111;DHT22;21290;50.158;8.658;2023-02-22T13:04:46;14.80;99.30
35111;DHT22;21290;50.158;8.658;2023-02-22T13:18:27;15.90;97.30
35111;DHT22;21290;50.158;8.658;2023-02-22T13:21:26;16.00;97.20
35111;DHT22;21290;50.158;8.658;2023-02-22T13:27:10;16.00;96.10
35111;DHT22;21290;50.158;8.658;2023-02-22T13:29:38;15.80;96.30
35111;DHT22;21290;50.158;8.658;2023-02-22T13:32:36;15.70;96.80
35111;DHT22;21290;50.158;8.658;2023-02-22T13:35:22;15.50;96.70
35111;DHT22;21290;50.158;8.658;2023-02-22T13:38:09;15.30;97.00
35111;DHT22;21290;50.158;8.658;2023-02-22T13:41:41;15.20;98.00
35111;DHT22;21290;50.158;8.658;2023-02-22T13:44:00;15.10;97.90
35111;DHT22;21290;50.158;8.658;2023-02-22T13:49:46;14.90;98.50
35111;DHT22;21290;50.158;8.658;2023-02-22T13:52:20;14.80;98.90
35111;DHT22;21290;50.158;8.658;2023-02-22T13:55:02;14.80;98.90
35111;DHT22;21290;50.158;8.658;2023-02-22T13:57:44;15.00;99.00
35111;DHT22;21290;50.158;8.658;2023-02-22T14:03:08;14.90;99.00
35111;DHT22;21290;50.158;8.658;2023-02-22T14:05:53;15.00;99.10
35111;DHT22;21290;50.158;8.658;2023-02-22T14:11:50;14.90;99.10
35111;DHT22;21290;50.158;8.658;2023-02-22T14:16:27;14.70;99.30
35111;DHT22;21290;50.158;8.658;2023-02-22T14:19:19;14.60;99.60
35111;DHT22;21290;50.158;8.658;2023-02-22T14:21:57;14.50;99.50
35111;DHT22;21290;50.158;8.658;2023-02-22T14:24:28;14.50;99.60
35111;DHT22;21290;50.158;8.658;2023-02-22T14:27:05;14.60;99.30
35111;DHT22;21290;50.158;8.658;2023-02-22T14:29:33;14.50;99.40
35111;DHT22;21290;50.158;8.658;2023-02-22T14:32:05;14.60;99.60
35111;DHT22;21290;50.158;8.658;2023-02-22T14:37:24;14.60;99.50
35111;DHT22;21290;50.158;8.658;2023-02-22T14:42:30;14.30;99.20
35111;DHT22;21290;50.158;8.658;2023-02-22T14:45:04;14.20;99.50
35111;DHT22;21290;50.158;8.658;2023-02-22T14:50:46;14.10;99.90
35111;DHT22;21290;50.158;8.658;2023-02-22T14:53:35;14.10;99.90
35111;DHT22;21290;50.158;8.658;2023-02-22T14:56:06;14.00;99.90
35111;DHT22;21290;50.158;8.658;2023-02-22T14:58:36;13.90;99.90
35111;DHT22;21290;50.158;8.658;2023-02-22T15:01:28;13.90;99.90
35111;DHT22;21290;50.158;8.658;2023-02-22T15:04:29;13.80;99.90
35111;DHT22;21290;50.158;8.658;2023-02-22T15:06:58;13.70;99.90
35111;DHT22;21290;50.158;8.658;2023-02-22T15:09:30;13.70;99.90
35111;DHT22;21290;50.158;8.658;2023-02-22T15:14:33;13.60;99.90
35111;DHT22;21290;50.158;8.658;2023-02-22T15:17:07;13.50;99.90
35111;DHT22;21290;50.158;8.658;2023-02-22T15:19:37;13.50;99.90
35111;DHT22;21290;50.158;8.658;2023-02-22T15:22:04;13.40;99.90
35111;DHT22;21290;50.158;8.658;2023-02-22T15:24:36;13.30;99.90
35111;DHT22;21290;50.158;8.658;2023-02-22T15:27:06;13.40;99.90
35111;DHT22;21290;50.158;8.658;2023-02-22T15:29:38;13.40;99.90
35111;DHT22;21290;50.158;8.658;2023-02-22T15:32:32;13.40;99.90
35111;DHT22;21290;50.158;8.658;2023-02-22T15:35:18;13.30;99.90
35111;DHT22;21290;50.158;8.658;2023-02-22T15:37:46;13.20;99.90
35111;DHT22;21290;50.158;8.658;2023-02-22T15:40:16;13.20;99.90
35111;DHT22;21290;50.158;8.658;2023-02-22T15:45:20;13.10;99.90
35111;DHT22;21290;50.158;8.658;2023-02-22T15:47:48;13.10;99.90
35111;DHT22;21290;50.158;8.658;2023-02-22T15:50:28;13.00;99.90
35111;DHT22;21290;50.158;8.658;2023-02-22T15:58:00;12.70;99.90
35111;DHT22;21290;50.158;8.658;2023-02-22T16:00:35;12.70;99.90
35111;DHT22;21290;50.158;8.658;2023-02-22T16:03:09;12.60;99.90
35111;DHT22;21290;50.158;8.658;2023-02-22T16:05:48;12.60;99.90
35111;DHT22;21290;50.158;8.658;2023-02-22T16:08:29;12.50;99.90
35111;DHT22;21290;50.158;8.658;2023-02-22T16:11:34;12.40;99.90
35111;DHT22;21290;50.158;8.658;2023-02-22T16:14:04;12.30;99.90
35111;DHT22;21290;50.158;8.658;2023-02-22T16:16:34;12.30;99.90
35111;DHT22;21290;50.158;8.658;2023-02-22T16:21:58;12.20;99.90
35111;DHT22;21290;50.158;8.658;2023-02-22T16:24:34;12.10;99.90
35111;DHT22;21290;50.158;8.658;2023-02-22T16:27:06;12.00;99.90
35111;DHT22;21290;50.158;8.658;2023-02-22T16:29:32;12.00;99.90
35111;DHT22;21290;50.158;8.658;2023-02-22T16:31:59;11.90;99.90
35111;DHT22;21290;50.158;8.658;2023-02-22T16:34:27;11.80;99.90
35111;DHT22;21290;50.158;8.658;2023-02-22T16:36:53;11.80;99.90
35111;DHT22;21290;50.158;8.658;2023-02-22T16:39:26;11.70;99.90
35111;DHT22;21290;50.158;8.658;2023-02-22T16:41:56;11.60;99.90
35111;DHT22;21290;50.158;8.658;2023-02-22T16:44:23;11.50;99.90
35111;DHT22;21290;50.158;8.658;2023-02-22T16:46:51;11.40;99.90
35111;DHT22;21290;50.158;8.658;2023-02-22T16:49:18;11.30;99.90
35111;DHT22;21290;50.158;8.658;2023-02-22T16:51:49;11.30;99.90
35111;DHT22;21290;50.158;8.658;2023-02-22T16:54:25;11.20;99.90
35111;DHT22;21290;50.158;8.658;2023-02-22T16:56:55;11.20;99.90
35111;DHT22;21290;50.158;8.658;2023-02-22T16:59:22;11.10;99.90
35111;DHT22;21290;50.158;8.658;2023-02-22T17:01:49;11.10;99.90
35111;DHT22;21290;50.158;8.658;2023-02-22T17:04:18;11.00;99.90
35111;DHT22;21290;50.158;8.658;2023-02-22T17:06:45;11.00;99.90
35111;DHT22;21290;50.158;8.658;2023-02-22T17:09:13;10.90;99.90
35111;DHT22;21290;50.158;8.658;2023-02-22T17:11:41;10.90;99.90
35111;DHT22;21290;50.158;8.658;2023-02-22T17:14:09;10.80;99.90
35111;DHT22;21290;50.158;8.658;2023-02-22T17:16:37;10.80;99.90
35111;DHT22;21290;50.158;8.658;2023-02-22T17:19:11;10.80;99.90
35111;DHT22;21290;50.158;8.658;2023-02-22T17:21:40;10.80;99.90
35111;DHT22;21290;50.158;8.658;2023-02-22T17:24:10;10.70;99.90
35111;DHT22;21290;50.158;8.658;2023-02-22T17:26:37;10.80;99.90
35111;DHT22;21290;50.158;8.658;2023-02-22T17:29:03;10.80;99.90
35111;DHT22;21290;50.158;8.658;2023-02-22T17:31:30;10.80;99.90
35111;DHT22;21290;50.158;8.658;2023-02-22T17:34:01;10.70;99.90
35111;DHT22;21290;50.158;8.658;2023-02-22T17:36:30;10.70;99.90
35111;DHT22;21290;50.158;8.658;2023-02-22T17:38:58;10.70;99.90
35111;DHT22;21290;50.158;8.658;2023-02-22T17:41:25;10.60;99.90
35111;DHT22;21290;50.158;8.658;2023-02-22T17:43:51;10.60;99.90
35111;DHT22;21290;50.158;8.658;2023-02-22T17:46:19;10.60;99.90
35111;DHT22;21290;50.158;8.658;2023-02-22T17:48:46;10.60;99.90
35111;DHT22;21290;50.158;8.658;2023-02-22T17:51:21;10.50;99.90
35111;DHT22;21290;50.158;8.658;2023-02-22T17:53:48;10.40;99.90
35111;DHT22;21290;50.158;8.658;2023-02-22T17:56:16;10.50;99.90
35111;DHT22;21290;50.158;8.658;2023-02-22T17:58:47;10.40;99.90
35111;DHT22;21290;50.158;8.658;2023-02-22T18:01:29;10.40;99.90
35111;DHT22;21290;50.158;8.658;2023-02-22T18:03:59;10.40;99.90
35111;DHT22;21290;50.158;8.658;2023-02-22T18:06:27;10.40;99.90
35111;DHT22;21290;50.158;8.658;2023-02-22T18:08:55;10.40;99.90